createdAt,value
2019-01-02T00:01:48.130Z,4.10
2019-01-02T00:04:18.542Z,4.10
2019-01-02T00:06:49.056Z,4.00
2019-01-02T00:09:19.229Z,3.47
2019-01-02T00:11:49.459Z,4.43
2019-01-02T00:14:21.437Z,4.63
2019-01-02T00:16:51.958Z,3.87
2019-01-02T00:19:22.015Z,3.23
2019-01-02T00:21:52.586Z,4.33
2019-01-02T00:24:22.661Z,3.43
2019-01-02T00:26:53.526Z,3.10
2019-01-02T00:29:23.568Z,3.93
2019-01-02T00:31:54.070Z,3.47
2019-01-02T00:34:24.425Z,3.10
2019-01-02T00:36:54.856Z,3.63
2019-01-02T00:39:25.488Z,6.60
2019-01-02T00:41:56.192Z,3.40
2019-01-02T00:44:26.702Z,3.60
2019-01-02T00:46:57.118Z,4.53
2019-01-02T00:49:27.125Z,6.23
2019-01-02T00:51:57.465Z,4.40
2019-01-02T00:54:27.565Z,3.47
2019-01-02T00:56:58.094Z,3.60
2019-01-02T00:59:29.146Z,4.07
2019-01-02T01:01:59.295Z,3.57
2019-01-02T01:04:29.459Z,2.63
2019-01-02T01:06:59.660Z,3.03
2019-01-02T01:09:30.369Z,3.23
2019-01-02T01:12:00.581Z,3.30
2019-01-02T01:14:31.347Z,3.27
2019-01-02T01:17:01.495Z,2.53
2019-01-02T01:19:31.589Z,2.90
2019-01-02T01:22:02.373Z,2.77
2019-01-02T01:24:32.465Z,2.43
2019-01-02T01:27:03.398Z,3.00
2019-01-02T01:29:33.359Z,3.40
2019-01-02T01:32:04.107Z,3.00
2019-01-02T01:34:34.190Z,2.90
2019-01-02T01:37:04.806Z,2.57
2019-01-02T01:39:34.971Z,2.53
2019-01-02T01:42:05.078Z,2.83
2019-01-02T01:44:35.687Z,2.27
2019-01-02T01:47:05.994Z,3.57
2019-01-02T01:49:36.042Z,2.73
2019-01-02T01:52:06.571Z,2.60
2019-01-02T01:54:36.996Z,3.03
2019-01-02T01:57:07.459Z,3.30
2019-01-02T01:59:37.546Z,2.53
2019-01-02T02:02:08.499Z,2.57
2019-01-02T02:04:38.606Z,2.97
2019-01-02T02:07:09.332Z,3.30
2019-01-02T02:09:39.392Z,2.30
2019-01-02T02:12:09.483Z,2.87
2019-01-02T02:14:40.695Z,3.87
2019-01-02T02:17:10.887Z,2.57
2019-01-02T02:19:40.984Z,2.60
2019-01-02T02:22:11.218Z,1.87
2019-01-02T02:24:41.214Z,2.40
2019-01-02T02:27:12.518Z,3.53
2019-01-02T02:29:42.786Z,2.43
2019-01-02T02:32:13.267Z,2.50
2019-01-02T02:34:43.428Z,2.90
2019-01-02T02:37:15.583Z,2.40
2019-01-02T02:39:46.040Z,3.13
2019-01-02T02:42:16.884Z,3.70
2019-01-02T02:44:47.437Z,3.07
2019-01-02T02:47:18.121Z,3.30
2019-01-02T02:49:48.182Z,2.63
2019-01-02T02:52:18.353Z,4.77
2019-01-02T02:54:49.023Z,3.30
2019-01-02T02:57:19.474Z,3.53
2019-01-02T02:59:49.526Z,5.10
2019-01-02T03:02:20.271Z,3.83
2019-01-02T03:04:50.352Z,4.47
2019-01-02T03:07:20.912Z,4.03
2019-01-02T03:09:51.390Z,3.00
2019-01-02T03:12:22.282Z,2.90
2019-01-02T03:14:52.324Z,3.10
2019-01-02T03:17:22.479Z,3.13
2019-01-02T03:19:52.789Z,3.90
2019-01-02T03:22:23.428Z,3.87
2019-01-02T03:24:54.309Z,2.77
2019-01-02T03:27:25.067Z,2.87
2019-01-02T03:29:56.278Z,3.50
2019-01-02T03:32:26.748Z,2.20
2019-01-02T03:34:57.607Z,2.40
2019-01-02T03:37:28.070Z,2.73
2019-01-02T03:39:58.435Z,3.17
2019-01-02T03:42:28.827Z,3.40
2019-01-02T03:44:58.898Z,2.17
2019-01-02T03:47:29.637Z,1.93
2019-01-02T03:49:59.747Z,3.97
2019-01-02T03:52:29.866Z,2.37
2019-01-02T03:55:00.276Z,3.33
2019-01-02T03:57:30.342Z,2.30
2019-01-02T04:00:00.474Z,3.20
2019-01-02T04:02:31.252Z,2.37
2019-01-02T04:05:01.289Z,3.03
2019-01-02T04:07:32.424Z,3.33
2019-01-02T04:10:02.476Z,3.53
2019-01-02T04:12:33.064Z,2.93
2019-01-02T04:15:03.369Z,2.13
2019-01-02T04:17:34.047Z,3.00
2019-01-02T04:20:04.430Z,1.83
2019-01-02T04:22:35.192Z,2.73
2019-01-02T04:25:05.385Z,2.70
2019-01-02T04:27:36.058Z,2.40
2019-01-02T04:30:09.358Z,2.23
2019-01-02T04:32:40.316Z,2.00
2019-01-02T04:35:10.422Z,3.47
2019-01-02T04:37:40.987Z,2.07
2019-01-02T04:40:12.495Z,2.03
2019-01-02T04:42:42.523Z,3.97
2019-01-02T04:45:12.653Z,2.03
2019-01-02T04:47:43.113Z,3.27
2019-01-02T04:50:14.582Z,2.77
2019-01-02T04:52:45.092Z,3.87
2019-01-02T04:55:15.315Z,2.53
2019-01-02T04:57:46.116Z,2.43
2019-01-02T05:00:17.723Z,2.87
2019-01-02T05:02:48.202Z,2.77
2019-01-02T05:05:18.491Z,1.90
2019-01-02T05:07:49.931Z,1.93
2019-01-02T05:10:20.066Z,2.07
2019-01-02T05:12:50.156Z,3.17
2019-01-02T05:15:20.599Z,2.17
2019-01-02T05:17:50.760Z,1.37
2019-01-02T05:20:23.190Z,1.87
2019-01-02T05:22:53.203Z,2.80
2019-01-02T05:25:23.204Z,2.47
2019-01-02T05:27:53.839Z,1.33
2019-01-02T05:30:23.948Z,4.30
2019-01-02T05:32:54.548Z,2.20
2019-01-02T05:35:24.680Z,3.60
2019-01-02T05:37:55.359Z,3.77
2019-01-02T05:40:26.292Z,2.33
2019-01-02T05:42:56.646Z,6.43
2019-01-02T05:45:26.743Z,2.80
2019-01-02T05:47:57.170Z,4.50
2019-01-02T05:50:27.647Z,3.07
2019-01-02T05:52:57.772Z,3.60
2019-01-02T05:55:28.447Z,3.57
2019-01-02T05:57:58.895Z,2.10
2019-01-02T06:00:28.954Z,3.00
2019-01-02T06:02:59.320Z,4.00
2019-01-02T06:05:29.382Z,7.17
2019-01-02T06:07:59.581Z,3.60
2019-01-02T06:10:30.293Z,4.10
2019-01-02T06:13:00.493Z,3.83
2019-01-02T06:15:30.759Z,5.70
2019-01-02T06:18:00.795Z,2.43
2019-01-02T06:20:30.952Z,3.80
2019-01-02T06:23:01.247Z,5.90
2019-01-02T06:25:31.403Z,2.97
2019-01-02T06:28:01.966Z,5.40
2019-01-02T06:30:32.032Z,4.43
2019-01-02T06:33:02.460Z,7.87
2019-01-02T06:35:32.904Z,3.67
2019-01-02T06:38:03.342Z,5.63
2019-01-02T06:40:33.474Z,5.33
2019-01-02T06:43:04.643Z,5.67
2019-01-02T06:45:34.174Z,2.37
2019-01-02T06:48:04.314Z,3.33
2019-01-02T06:50:34.517Z,4.27
2019-01-02T06:53:04.871Z,4.20
2019-01-02T06:55:35.514Z,3.33
2019-01-02T06:58:05.714Z,4.80
2019-01-02T07:00:44.202Z,3.97
2019-01-02T07:03:14.445Z,4.37
2019-01-02T07:05:44.037Z,4.43
2019-01-02T07:08:14.334Z,3.27
2019-01-02T07:10:44.401Z,7.00
2019-01-02T07:13:14.523Z,5.77
2019-01-02T07:15:46.599Z,5.70
2019-01-02T07:18:17.134Z,4.53
2019-01-02T07:20:47.276Z,4.50
2019-01-02T07:23:17.403Z,4.60
2019-01-02T07:25:47.543Z,9.47
2019-01-02T07:28:17.865Z,2.60
2019-01-02T07:30:47.884Z,4.03
2019-01-02T07:33:18.082Z,5.27
2019-01-02T07:36:35.711Z,7.07
2019-01-02T07:39:28.062Z,5.50
2019-01-02T07:42:34.205Z,7.77
2019-01-02T07:45:57.083Z,5.40
2019-01-02T07:48:45.603Z,6.67
2019-01-02T07:52:11.861Z,6.93
2019-01-02T07:55:15.413Z,4.37
2019-01-02T07:58:17.003Z,5.13
2019-01-02T08:01:29.676Z,3.40
2019-01-02T08:04:33.532Z,4.37
2019-01-02T08:07:47.371Z,8.60
2019-01-02T08:10:56.223Z,4.63
2019-01-02T08:14:20.196Z,5.83
2019-01-02T08:17:29.506Z,7.73
2019-01-02T08:20:50.024Z,2.73
2019-01-02T08:24:16.390Z,5.13
2019-01-02T08:27:29.790Z,4.77
2019-01-02T08:30:23.333Z,5.10
2019-01-02T08:33:43.656Z,8.13
2019-01-02T08:36:43.286Z,4.03
2019-01-02T08:39:48.801Z,4.77
2019-01-02T08:43:14.728Z,6.03
2019-01-02T08:45:57.475Z,4.93
2019-01-02T08:49:14.622Z,7.37
2019-01-02T08:52:14.042Z,4.63
2019-01-02T08:55:26.386Z,6.03
2019-01-02T08:58:37.990Z,6.23
2019-01-02T09:01:29.302Z,2.97
2019-01-02T09:04:14.432Z,4.13
2019-01-02T09:07:12.886Z,5.77
2019-01-02T09:10:30.052Z,4.27
2019-01-02T09:13:33.743Z,5.67
2019-01-02T09:16:56.166Z,6.17
2019-01-02T09:20:07.533Z,6.97
2019-01-02T09:23:23.396Z,6.47
2019-01-02T09:26:30.574Z,4.40
2019-01-02T09:29:46.922Z,5.70
2019-01-02T09:32:36.195Z,3.80
2019-01-02T09:35:42.313Z,5.90
2019-01-02T09:38:49.615Z,5.63
2019-01-02T09:41:42.420Z,5.33
2019-01-02T09:44:46.231Z,5.83
2019-01-02T09:48:08.636Z,5.70
2019-01-02T09:51:44.178Z,8.53
2019-01-02T09:55:01.433Z,5.97
2019-01-02T09:58:03.328Z,6.13
2019-01-02T10:00:44.775Z,5.20
2019-01-02T10:03:51.795Z,6.57
2019-01-02T10:06:50.403Z,9.43
2019-01-02T10:09:53.181Z,6.73
2019-01-02T10:12:43.344Z,8.23
2019-01-02T10:16:18.765Z,7.60
2019-01-02T10:19:31.643Z,5.00
2019-01-02T10:22:47.001Z,3.80
2019-01-02T10:26:10.295Z,5.40
2019-01-02T10:29:07.458Z,5.27
2019-01-02T10:32:03.301Z,5.83
2019-01-02T10:35:48.052Z,8.93
2019-01-02T10:38:55.044Z,7.47
2019-01-02T10:42:11.444Z,4.23
2019-01-02T10:45:31.847Z,6.27
2019-01-02T10:48:44.546Z,10.47
2019-01-02T10:51:50.089Z,8.23
2019-01-02T10:55:07.587Z,6.60
2019-01-02T10:58:36.390Z,5.70
2019-01-02T11:01:46.460Z,5.03
2019-01-02T11:05:01.367Z,4.60
2019-01-02T11:08:17.053Z,7.73
2019-01-02T11:11:24.404Z,9.90
2019-01-02T11:14:29.216Z,6.80
2019-01-02T11:17:43.116Z,6.37
2019-01-02T11:21:02.152Z,7.97
2019-01-02T11:24:15.760Z,8.23
2019-01-02T11:26:55.863Z,6.93
2019-01-02T11:29:57.237Z,5.30
2019-01-02T11:33:09.881Z,6.57
2019-01-02T11:36:08.922Z,4.90
2019-01-02T11:39:28.413Z,7.73
2019-01-02T11:42:29.352Z,6.97
2019-01-02T11:45:12.446Z,6.67
2019-01-02T11:47:44.106Z,5.10
2019-01-02T11:50:15.831Z,6.13
2019-01-02T11:52:47.756Z,6.50
2019-01-02T11:55:18.449Z,6.03
2019-01-02T11:57:49.034Z,8.13
2019-01-02T12:00:20.420Z,6.70
2019-01-02T12:02:50.656Z,5.50
2019-01-02T12:05:21.113Z,8.97
2019-01-02T12:07:51.407Z,5.57
2019-01-02T12:10:22.626Z,6.40
2019-01-02T12:12:53.340Z,5.37
2019-01-02T12:15:23.757Z,8.00
2019-01-02T12:17:53.836Z,6.43
2019-01-02T12:20:24.119Z,10.23
2019-01-02T12:22:54.723Z,6.13
2019-01-02T12:25:25.008Z,6.03
2019-01-02T12:27:55.515Z,7.03
2019-01-02T12:30:25.979Z,8.93
2019-01-02T12:32:56.139Z,5.53
2019-01-02T12:35:26.522Z,7.20
2019-01-02T12:37:56.694Z,5.77
2019-01-02T12:40:27.042Z,6.73
2019-01-02T12:42:57.394Z,5.37
2019-01-02T12:45:27.973Z,5.77
2019-01-02T12:47:59.087Z,4.60
2019-01-02T12:50:29.962Z,6.10
2019-01-02T12:53:02.325Z,7.43
2019-01-02T12:55:32.867Z,7.90
2019-01-02T12:58:03.079Z,6.00
2019-01-02T13:00:51.615Z,5.37
2019-01-02T13:04:08.555Z,6.97
2019-01-02T13:07:44.676Z,6.67
2019-01-02T13:10:24.903Z,6.73
2019-01-02T13:13:42.092Z,6.10
2019-01-02T13:17:02.525Z,6.40
2019-01-02T13:19:48.491Z,8.20
2019-01-02T13:22:58.871Z,9.07
2019-01-02T13:26:23.438Z,9.10
2019-01-02T13:29:02.700Z,6.37
2019-01-02T13:32:03.797Z,4.67
2019-01-02T13:35:22.863Z,9.67
2019-01-02T13:38:36.224Z,7.47
2019-01-02T13:41:46.182Z,7.30
2019-01-02T13:44:23.430Z,8.53
2019-01-02T13:47:30.455Z,6.00
2019-01-02T13:50:28.782Z,8.50
2019-01-02T13:53:03.635Z,8.43
2019-01-02T13:55:33.798Z,5.87
2019-01-02T13:58:03.854Z,5.07
2019-01-02T14:00:34.094Z,8.40
2019-01-02T14:03:04.586Z,9.73
2019-01-02T14:05:38.395Z,5.43
2019-01-02T14:08:08.672Z,8.47
2019-01-02T14:10:40.032Z,8.37
2019-01-02T14:13:10.369Z,4.33
2019-01-02T14:15:40.746Z,5.83
2019-01-02T14:18:12.150Z,6.97
2019-01-02T14:20:42.380Z,7.70
2019-01-02T14:23:12.791Z,6.33
2019-01-02T14:25:43.093Z,7.40
2019-01-02T14:28:12.658Z,4.23
2019-01-02T14:30:43.129Z,6.77
2019-01-02T14:33:13.409Z,8.33
2019-01-02T14:35:43.987Z,8.23
2019-01-02T14:38:14.171Z,6.80
2019-01-02T14:40:44.397Z,7.57
2019-01-02T14:43:14.898Z,7.17
2019-01-02T14:45:45.055Z,7.17
2019-01-02T14:48:34.628Z,5.53
2019-01-02T14:51:04.766Z,6.83
2019-01-02T14:53:35.036Z,8.10
2019-01-02T14:56:05.060Z,7.73
2019-01-02T14:58:35.193Z,6.73
2019-01-02T15:01:06.154Z,6.70
2019-01-02T15:03:36.364Z,8.37
2019-01-02T15:06:06.648Z,6.67
2019-01-02T15:08:37.604Z,8.30
2019-01-02T15:11:08.351Z,6.83
2019-01-02T15:13:38.710Z,9.00
2019-01-02T15:16:09.449Z,6.03
2019-01-02T15:18:41.523Z,6.83
2019-01-02T15:21:12.226Z,7.20
2019-01-02T15:23:42.402Z,8.33
2019-01-02T15:26:13.182Z,8.70
2019-01-02T15:28:44.374Z,8.83
2019-01-02T15:31:17.671Z,6.37
2019-01-02T15:33:47.895Z,9.73
2019-01-02T15:36:18.281Z,9.33
2019-01-02T15:38:49.486Z,11.20
2019-01-02T15:41:19.699Z,6.03
2019-01-02T15:43:52.114Z,7.40
2019-01-02T15:46:23.239Z,5.83
2019-01-02T15:48:53.839Z,10.97
2019-01-02T15:51:23.555Z,8.37
2019-01-02T15:53:53.820Z,8.43
2019-01-02T15:56:25.237Z,7.27
2019-01-02T15:58:58.356Z,9.57
2019-01-02T16:01:28.414Z,8.40
2019-01-02T16:04:01.604Z,4.60
2019-01-02T16:06:31.738Z,10.20
2019-01-02T16:09:03.354Z,6.43
2019-01-02T16:11:33.665Z,7.10
2019-01-02T16:14:05.373Z,5.97
2019-01-02T16:16:35.571Z,8.33
2019-01-02T16:19:05.826Z,11.23
2019-01-02T16:21:35.524Z,6.63
2019-01-02T16:24:06.029Z,6.83
2019-01-02T16:26:36.222Z,8.63
2019-01-02T16:29:05.882Z,9.80
2019-01-02T16:31:36.199Z,9.67
2019-01-02T16:34:06.948Z,7.03
2019-01-02T16:36:37.249Z,8.77
2019-01-02T16:39:08.966Z,7.10
2019-01-02T16:41:39.264Z,10.53
2019-01-02T16:44:09.760Z,7.80
2019-01-02T16:46:39.909Z,7.50
2019-01-02T16:49:10.401Z,6.10
2019-01-02T16:51:40.568Z,5.77
2019-01-02T16:54:10.991Z,5.67
2019-01-02T16:56:41.206Z,9.67
2019-01-02T16:59:12.759Z,5.57
2019-01-02T17:01:42.938Z,9.30
2019-01-02T17:04:13.357Z,7.10
2019-01-02T17:06:43.717Z,6.50
2019-01-02T17:09:14.031Z,6.37
2019-01-02T17:11:44.426Z,7.53
2019-01-02T17:14:14.655Z,10.73
2019-01-02T17:16:45.121Z,9.37
2019-01-02T17:19:15.319Z,12.70
2019-01-02T17:21:45.469Z,12.10
2019-01-02T17:24:15.731Z,10.00
2019-01-02T17:26:47.136Z,9.03
2019-01-02T17:29:17.363Z,11.23
2019-01-02T17:31:47.737Z,7.43
2019-01-02T17:34:17.926Z,8.60
2019-01-02T17:36:49.354Z,6.83
2019-01-02T17:39:19.563Z,9.17
2019-01-02T17:41:50.202Z,11.83
2019-01-02T17:44:20.530Z,9.67
2019-01-02T17:46:50.711Z,7.27
2019-01-02T17:49:21.153Z,9.03
2019-01-02T17:51:52.218Z,14.10
2019-01-02T17:54:22.355Z,8.60
2019-01-02T17:56:53.451Z,8.30
2019-01-02T17:59:23.679Z,8.10
2019-01-02T18:01:53.674Z,5.53
2019-01-02T18:04:23.681Z,9.27
2019-01-02T18:06:53.503Z,11.30
2019-01-02T18:09:23.539Z,10.43
2019-01-02T18:11:54.100Z,7.47
2019-01-02T18:14:24.292Z,7.63
2019-01-02T18:16:54.466Z,7.43
2019-01-02T18:19:24.598Z,9.43
2019-01-02T18:21:54.404Z,7.47
2019-01-02T18:24:24.731Z,8.73
2019-01-02T18:26:54.274Z,6.60
2019-01-02T18:29:24.251Z,7.80
2019-01-02T18:31:54.427Z,9.27
2019-01-02T18:34:24.595Z,8.73
2019-01-02T18:36:54.795Z,5.80
2019-01-02T18:39:24.570Z,7.90
2019-01-02T18:41:55.462Z,10.43
2019-01-02T18:44:26.343Z,5.33
2019-01-02T18:46:56.558Z,7.07
2019-01-02T18:49:27.163Z,5.57
2019-01-02T18:51:57.519Z,7.23
2019-01-02T18:54:27.737Z,8.30
2019-01-02T18:56:59.499Z,12.63
2019-01-02T18:59:29.807Z,8.20
2019-01-02T19:02:00.723Z,10.13
2019-01-02T19:04:30.895Z,9.47
2019-01-02T19:07:01.107Z,8.20
2019-01-02T19:09:31.312Z,9.47
2019-01-02T19:12:01.811Z,6.87
2019-01-02T19:14:32.106Z,6.93
2019-01-02T19:17:02.707Z,6.10
2019-01-02T19:19:32.986Z,1.70
2019-01-02T19:22:03.722Z,1.03
2019-01-02T19:24:34.048Z,1.53
2019-01-02T19:27:04.773Z,1.43
2019-01-02T19:29:34.930Z,2.77
2019-01-02T19:32:05.381Z,4.33
2019-01-02T19:34:35.953Z,3.80
2019-01-02T19:37:05.691Z,4.00
2019-01-02T19:39:35.705Z,3.43
2019-01-02T19:42:05.633Z,2.70
2019-01-02T19:44:35.360Z,3.33
2019-01-02T19:47:05.301Z,1.60
2019-01-02T19:49:34.806Z,6.33
2019-01-02T19:52:04.954Z,5.57
2019-01-02T19:54:34.542Z,6.80
2019-01-02T19:57:04.632Z,2.77
2019-01-02T19:59:35.263Z,6.70
2019-01-02T20:02:06.048Z,4.43
2019-01-02T20:04:37.511Z,6.00
2019-01-02T20:07:07.287Z,5.73
2019-01-02T20:09:37.410Z,3.20
2019-01-02T20:12:07.239Z,3.60
2019-01-02T20:14:37.537Z,3.07
2019-01-02T20:17:07.678Z,7.73
2019-01-02T20:19:37.984Z,3.87
2019-01-02T20:22:08.210Z,3.77
2019-01-02T20:24:38.416Z,5.17
2019-01-02T20:27:08.246Z,5.73
2019-01-02T20:29:37.728Z,4.67
2019-01-02T20:32:08.150Z,4.87
2019-01-02T20:34:38.263Z,4.37
2019-01-02T20:37:08.675Z,6.20
2019-01-02T20:39:38.778Z,4.50
2019-01-02T20:42:09.219Z,7.23
2019-01-02T20:44:39.495Z,4.83
2019-01-02T20:47:09.916Z,8.27
2019-01-02T20:49:40.105Z,5.27
2019-01-02T20:52:10.176Z,11.10
2019-01-02T20:54:40.952Z,5.27
2019-01-02T20:57:11.127Z,7.00
2019-01-02T20:59:41.980Z,6.03
2019-01-02T21:02:12.295Z,4.53
2019-01-02T21:04:42.411Z,4.50
2019-01-02T21:07:13.429Z,5.43
2019-01-02T21:09:43.986Z,5.57
2019-01-02T21:12:14.158Z,6.20
2019-01-02T21:14:44.374Z,10.00
2019-01-02T21:17:14.674Z,9.43
2019-01-02T21:19:44.784Z,6.50
2019-01-02T21:22:23.540Z,6.13
2019-01-02T21:24:54.302Z,6.13
2019-01-02T21:27:24.472Z,8.60
2019-01-02T21:29:54.935Z,9.23
2019-01-02T21:32:25.116Z,6.60
2019-01-02T21:34:55.518Z,7.53
2019-01-02T21:37:25.562Z,10.93
2019-01-02T21:39:56.110Z,10.73
2019-01-02T21:42:26.262Z,5.90
2019-01-02T21:44:56.854Z,8.33
2019-01-02T21:47:26.512Z,9.07
2019-01-02T21:49:56.963Z,7.83
2019-01-02T21:52:27.115Z,5.70
2019-01-02T21:54:56.850Z,6.07
2019-01-02T21:57:26.391Z,9.70
2019-01-02T21:59:56.651Z,7.20
2019-01-02T22:02:26.859Z,9.63
2019-01-02T22:04:57.006Z,9.57
2019-01-02T22:07:30.499Z,9.90
2019-01-02T22:10:00.719Z,7.50
2019-01-02T22:12:30.947Z,9.53
2019-01-02T22:15:01.151Z,12.87
2019-01-02T22:17:31.355Z,6.43
2019-01-02T22:20:02.304Z,8.90
2019-01-02T22:22:32.327Z,8.07
2019-01-02T22:25:02.481Z,9.93
2019-01-02T22:27:33.654Z,8.63
2019-01-02T22:30:03.775Z,4.33
2019-01-02T22:32:33.224Z,6.87
2019-01-02T22:35:03.659Z,7.50
2019-01-02T22:37:33.751Z,7.73
2019-01-02T22:40:03.396Z,7.87
2019-01-02T22:42:33.733Z,7.33
2019-01-02T22:45:03.767Z,8.57
2019-01-02T22:47:35.267Z,8.80
2019-01-02T22:50:07.226Z,6.10
2019-01-02T22:52:38.184Z,10.50
2019-01-02T22:55:08.463Z,5.67
2019-01-02T22:57:38.916Z,7.03
2019-01-02T23:00:28.597Z,5.57
2019-01-02T23:03:29.223Z,4.30
2019-01-02T23:06:18.304Z,5.77
2019-01-02T23:09:06.454Z,6.67
2019-01-02T23:11:57.439Z,6.67
2019-01-02T23:14:55.930Z,6.53
2019-01-02T23:17:41.628Z,6.43
2019-01-02T23:20:30.993Z,5.60
2019-01-02T23:23:38.342Z,7.60
2019-01-02T23:26:26.300Z,6.63
2019-01-02T23:29:24.174Z,7.57
2019-01-02T23:32:16.655Z,7.00
2019-01-02T23:35:17.247Z,6.33
2019-01-02T23:38:05.182Z,7.47
2019-01-02T23:40:56.528Z,8.63
2019-01-02T23:43:42.915Z,6.67
2019-01-02T23:46:30.628Z,6.37
2019-01-02T23:49:18.465Z,7.87
2019-01-02T23:52:06.487Z,9.97
2019-01-02T23:54:52.914Z,9.87
2019-01-02T23:57:48.319Z,9.83
